Time;durP1;ratioP1;P1;durP2;ratioP2;P2;SDS_P1;SDS_P2;PMS_P1;PMS_P2;Temp;Humidity;BMP_temperature;BMP_pressure;BME280_temperature;BME280_humidity;BME280_pressure;Samples;Min_cycle;Max_cycle;Signal;HPM_P1;HPM_P2
2022/01/05 00:01:18;;;;;;;10.70;2.97;;;;;;;2.28;100.00;98341.13;5038740;28;20101;-85
2022/01/05 00:03:43;;;;;;;8.13;2.13;;;;;;;2.24;100.00;98339.50;5039160;28;20152;-85
2022/01/05 00:06:08;;;;;;;10.40;2.72;;;;;;;2.41;100.00;98335.50;5039176;28;20072;-85
2022/01/05 00:08:34;;;;;;;10.35;3.00;;;;;;;2.17;100.00;98330.00;5040533;28;20036;-84
2022/01/05 00:10:59;;;;;;;7.63;2.72;;;;;;;2.29;100.00;98332.34;5038464;28;20033;-85
2022/01/05 00:13:24;;;;;;;10.32;3.38;;;;;;;2.28;100.00;98313.91;5039922;28;20026;-85
2022/01/05 00:15:49;;;;;;;13.50;3.25;;;;;;;2.38;100.00;98325.94;5039233;28;20029;-84
2022/01/05 00:18:15;;;;;;;14.27;3.60;;;;;;;2.23;100.00;98321.94;5038733;28;20108;-85
2022/01/05 00:20:41;;;;;;;9.25;3.70;;;;;;;2.25;100.00;98329.81;5037334;28;20025;-85
2022/01/05 00:23:06;;;;;;;10.98;3.88;;;;;;;2.35;100.00;98326.00;5038557;28;20031;-86
2022/01/05 00:25:31;;;;;;;10.50;3.92;;;;;;;2.36;100.00;98327.75;5038618;28;20025;-85
2022/01/05 00:27:57;;;;;;;13.77;3.97;;;;;;;2.39;100.00;98322.41;5039053;28;20059;-85
2022/01/05 00:30:22;;;;;;;12.68;4.60;;;;;;;2.21;100.00;98318.50;5038356;28;20429;-84
2022/01/05 00:32:47;;;;;;;10.43;4.03;;;;;;;2.22;100.00;98320.22;5037042;28;20439;-85
2022/01/05 00:35:13;;;;;;;11.77;4.43;;;;;;;2.24;100.00;98328.97;5037144;28;20028;-86
2022/01/05 00:37:38;;;;;;;12.52;4.00;;;;;;;2.32;100.00;98323.47;5037482;28;20021;-85
2022/01/05 00:40:06;;;;;;;9.13;3.60;;;;;;;2.22;100.00;98325.47;5037830;28;20112;-84
2022/01/05 00:42:31;;;;;;;12.15;4.40;;;;;;;2.28;100.00;98329.72;5037191;28;20390;-84
2022/01/05 00:44:57;;;;;;;13.55;3.50;;;;;;;2.14;100.00;98328.31;5037593;28;20501;-85
2022/01/05 00:47:22;;;;;;;10.82;3.53;;;;;;;2.18;100.00;98308.03;5037295;28;20025;-84
2022/01/05 00:49:47;;;;;;;6.95;3.22;;;;;;;2.24;100.00;98315.78;5036635;28;20029;-84
2022/01/05 00:52:13;;;;;;;8.52;3.10;;;;;;;2.28;100.00;98322.69;5038337;28;20026;-84
2022/01/05 00:54:39;;;;;;;9.40;3.28;;;;;;;2.24;100.00;98323.69;5038240;28;20021;-85
2022/01/05 00:57:04;;;;;;;12.25;3.10;;;;;;;2.06;100.00;98332.94;5038057;28;20017;-84
2022/01/05 00:59:29;;;;;;;6.82;2.80;;;;;;;2.17;100.00;98325.63;5037273;28;20029;-85
2022/01/05 01:01:55;;;;;;;9.73;2.65;;;;;;;2.03;100.00;98333.03;5037189;28;20044;-84
2022/01/05 01:04:20;;;;;;;10.05;2.90;;;;;;;2.14;100.00;98323.06;5035843;28;20025;-84
2022/01/05 01:06:45;;;;;;;9.70;3.17;;;;;;;2.07;100.00;98338.16;5037417;28;20025;-85
2022/01/05 01:09:11;;;;;;;10.15;2.65;;;;;;;2.11;100.00;98331.91;5039993;28;20021;-85
2022/01/05 01:11:36;;;;;;;8.07;3.10;;;;;;;1.97;100.00;98341.94;5057153;22;20175;-75
2022/01/05 01:14:02;;;;;;;11.43;3.13;;;;;;;2.03;100.00;98336.53;5055153;28;20029;-75
2022/01/05 01:16:27;;;;;;;7.75;2.95;;;;;;;1.91;100.00;98335.06;5053737;28;20112;-75
2022/01/05 01:18:53;;;;;;;11.15;2.90;;;;;;;1.94;100.00;98337.63;5055266;28;20017;-75
2022/01/05 01:21:18;;;;;;;9.07;2.88;;;;;;;1.92;100.00;98335.94;5054903;28;20416;-75
2022/01/05 01:23:54;;;;;;;10.50;2.97;;;;;;;1.92;100.00;98335.94;5055182;28;20074;-75
2022/01/05 01:26:19;;;;;;;12.80;2.78;;;;;;;1.89;100.00;98334.25;5054903;28;20096;-75
2022/01/05 01:28:44;;;;;;;13.38;2.78;;;;;;;1.91;100.00;98331.59;5054875;28;20063;-75
2022/01/05 01:31:10;;;;;;;7.30;2.60;;;;;;;1.99;100.00;98337.50;5054667;28;20059;-74
2022/01/05 01:33:35;;;;;;;8.30;2.45;;;;;;;1.88;100.00;98330.75;5054715;28;20043;-75
2022/01/05 01:36:00;;;;;;;18.52;3.22;;;;;;;1.91;100.00;98337.69;5054909;28;20017;-74
2022/01/05 01:38:26;;;;;;;11.75;2.97;;;;;;;1.87;100.00;98347.47;5055032;28;20037;-75
2022/01/05 01:40:52;;;;;;;11.02;2.58;;;;;;;2.05;100.00;98345.25;5054532;28;20056;-75
2022/01/05 01:43:18;;;;;;;10.68;2.38;;;;;;;1.99;100.00;98334.88;5054582;28;20135;-75
2022/01/05 01:45:43;;;;;;;15.63;4.22;;;;;;;1.84;100.00;98339.63;5054503;28;20502;-74
2022/01/05 01:48:08;;;;;;;9.63;2.78;;;;;;;1.98;100.00;98346.31;5053207;28;20021;-75
2022/01/05 01:50:34;;;;;;;13.73;2.72;;;;;;;1.91;100.00;98340.31;5054380;28;20115;-75
2022/01/05 01:53:00;;;;;;;11.13;2.78;;;;;;;1.89;100.00;98340.38;5053063;28;20051;-74
2022/01/05 01:55:25;;;;;;;14.15;2.85;;;;;;;1.84;100.00;98347.53;5054209;28;20036;-75
2022/01/05 01:57:51;;;;;;;10.00;2.83;;;;;;;1.80;100.00;98339.75;5054266;28;20059;-75
2022/01/05 02:00:16;;;;;;;10.35;2.92;;;;;;;1.82;100.00;98338.81;5054153;28;20514;-75
2022/01/05 02:02:44;;;;;;;14.52;2.83;;;;;;;1.76;100.00;98346.84;5052993;28;20111;-76
2022/01/05 02:05:10;;;;;;;11.70;2.85;;;;;;;1.76;100.00;98349.50;5054158;28;20512;-75
2022/01/05 02:07:35;;;;;;;8.07;2.70;;;;;;;1.76;100.00;98338.97;5052768;28;20075;-75
2022/01/05 02:10:04;;;;;;;10.60;2.67;;;;;;;1.73;100.00;98345.16;5052736;28;20025;-75
2022/01/05 02:12:29;;;;;;;13.48;2.38;;;;;;;1.66;100.00;98343.59;5052671;28;20028;-75
2022/01/05 02:14:54;;;;;;;10.98;2.75;;;;;;;1.67;100.00;98346.22;5052700;28;20029;-75
2022/01/05 02:17:23;;;;;;;11.82;2.60;;;;;;;1.66;100.00;98349.72;5052230;28;20485;-74
2022/01/05 02:19:49;;;;;;;9.15;2.38;;;;;;;1.71;100.00;98356.63;5054050;28;20032;-74
2022/01/05 02:22:15;;;;;;;7.55;2.05;;;;;;;1.65;100.00;98350.63;5053821;28;20033;-75
2022/01/05 02:24:45;;;;;;;10.02;2.20;;;;;;;1.69;100.00;98355.81;5053776;28;20493;-75
2022/01/05 02:27:11;;;;;;;11.20;2.40;;;;;;;1.66;100.00;98359.38;5052545;28;20028;-75
2022/01/05 02:29:36;;;;;;;17.35;2.40;;;;;;;1.53;100.00;98356.19;5053903;28;20025;-75
2022/01/05 02:32:03;;;;;;;10.88;2.20;;;;;;;1.54;100.00;98340.38;5052398;28;20098;-75
2022/01/05 02:34:28;;;;;;;10.77;2.20;;;;;;;1.56;100.00;98350.84;5053592;28;20029;-75
2022/01/05 02:36:53;;;;;;;9.50;2.50;;;;;;;1.53;100.00;98353.56;5052222;28;20540;-75
2022/01/05 02:39:18;;;;;;;8.60;2.10;;;;;;;1.59;100.00;98355.19;5053727;28;20027;-74
2022/01/05 02:41:44;;;;;;;8.93;2.10;;;;;;;1.50;100.00;98353.63;5053477;28;20079;-75
2022/01/05 02:44:10;;;;;;;10.10;2.40;;;;;;;1.53;100.00;98358.81;5053459;28;20023;-75
2022/01/05 02:46:35;;;;;;;8.25;1.88;;;;;;;1.48;100.00;98353.66;5052325;28;20401;-75
2022/01/05 02:49:03;;;;;;;8.93;2.17;;;;;;;1.45;100.00;98351.97;5053357;28;20474;-74
2022/01/05 02:51:28;;;;;;;9.25;2.00;;;;;;;1.49;100.00;98351.91;5053279;28;20504;-75
2022/01/05 02:53:54;;;;;;;12.82;2.33;;;;;;;1.43;100.00;98343.25;5053363;28;20029;-75
2022/01/05 02:56:19;;;;;;;11.52;2.63;;;;;;;1.25;100.00;98348.94;5053230;28;20033;-75
2022/01/05 02:58:44;;;;;;;7.38;1.85;;;;;;;1.31;100.00;98346.19;5051980;28;20025;-75
2022/01/05 03:01:10;;;;;;;11.48;2.95;;;;;;;1.27;100.00;98355.03;5053147;28;20040;-75
2022/01/05 03:03:35;;;;;;;10.98;2.10;;;;;;;1.30;100.00;98347.06;5053453;28;20032;-75
2022/01/05 03:06:00;;;;;;;12.15;2.70;;;;;;;1.19;100.00;98344.69;5053184;28;20025;-75
2022/01/05 03:08:25;;;;;;;10.85;2.75;;;;;;;1.25;100.00;98354.22;5053097;28;20032;-75
2022/01/05 03:10:51;;;;;;;10.73;2.30;;;;;;;1.07;100.00;98353.72;5052898;28;20032;-75
2022/01/05 03:13:16;;;;;;;7.70;1.90;;;;;;;1.13;100.00;98352.72;5053134;28;20432;-75
2022/01/05 03:15:41;;;;;;;13.48;2.83;;;;;;;1.15;100.00;98361.44;5052962;28;20507;-75
2022/01/05 03:18:07;;;;;;;8.05;2.17;;;;;;;1.08;100.00;98363.34;5053008;28;20021;-75
2022/01/05 03:20:34;;;;;;;14.65;2.40;;;;;;;1.16;100.00;98360.56;5052959;28;20032;-75
2022/01/05 03:23:01;;;;;;;9.82;2.40;;;;;;;1.01;100.00;98367.88;5051699;28;20501;-74
2022/01/05 03:25:26;;;;;;;10.50;2.10;;;;;;;1.07;100.00;98356.34;5052921;28;20524;-75
2022/01/05 03:27:53;;;;;;;11.10;2.38;;;;;;;0.96;100.00;98360.09;5053978;28;20025;-74
2022/01/05 03:30:22;;;;;;;8.82;1.95;;;;;;;0.88;100.00;98367.25;5057283;28;20028;-74
2022/01/05 03:35:46;;;;;;;10.05;2.22;;;;;;;0.82;100.00;98362.16;5012639;28;20040;-75
2022/01/05 03:38:15;;;;;;;12.40;2.00;;;;;;;0.83;100.00;98361.25;5057363;28;20052;-75
2022/01/05 03:40:42;;;;;;;13.60;2.45;;;;;;;0.86;100.00;98363.81;5055605;28;20393;-74
2022/01/05 03:43:08;;;;;;;9.77;2.35;;;;;;;0.80;100.00;98369.22;5057241;28;20021;-74
2022/01/05 03:45:35;;;;;;;10.02;2.10;;;;;;;0.87;100.00;98381.31;5056976;28;20029;-75
2022/01/05 03:48:01;;;;;;;7.95;1.90;;;;;;;0.86;100.00;98371.69;5056767;28;20017;-74
2022/01/05 03:50:26;;;;;;;9.40;1.65;;;;;;;0.75;100.00;98383.28;5056613;28;20473;-74
2022/01/05 03:52:52;;;;;;;10.45;2.40;;;;;;;0.78;100.00;98388.50;5055460;28;20074;-75
2022/01/05 03:55:17;;;;;;;10.57;1.92;;;;;;;0.75;100.00;98388.53;5056663;28;20473;-74
2022/01/05 03:57:42;;;;;;;9.38;2.15;;;;;;;0.74;100.00;98401.72;5055315;28;20135;-74
2022/01/05 04:00:08;;;;;;;8.77;1.85;;;;;;;0.74;100.00;98392.09;5055308;28;20024;-75
2022/01/05 04:02:34;;;;;;;12.43;2.00;;;;;;;0.86;100.00;98403.22;5056595;28;20029;-74
2022/01/05 04:04:59;;;;;;;9.68;2.30;;;;;;;0.82;100.00;98409.47;5055344;28;20083;-75
2022/01/05 04:07:24;;;;;;;9.10;2.03;;;;;;;0.68;100.00;98417.59;5056409;28;20051;-74
2022/01/05 04:09:50;;;;;;;11.45;2.60;;;;;;;0.62;100.00;98418.59;5055063;28;20029;-74
2022/01/05 04:12:15;;;;;;;10.40;1.92;;;;;;;0.69;100.00;98428.09;5054883;28;20033;-74
2022/01/05 04:14:40;;;;;;;10.55;2.22;;;;;;;0.62;100.00;98429.13;5056466;28;20032;-74
2022/01/05 04:17:05;;;;;;;10.60;2.08;;;;;;;0.70;100.00;98421.94;5054940;28;20053;-74
2022/01/05 04:19:31;;;;;;;12.88;2.35;;;;;;;0.58;100.00;98424.78;5056390;28;20036;-74
2022/01/05 04:21:57;;;;;;;12.88;2.42;;;;;;;0.57;100.00;98425.72;5056101;28;20095;-74
2022/01/05 04:24:22;;;;;;;9.60;2.72;;;;;;;0.57;100.00;98428.34;5056100;28;20024;-74
2022/01/05 04:26:48;;;;;;;7.60;2.00;;;;;;;0.54;100.00;98432.72;5056084;28;20021;-74
2022/01/05 04:29:13;;;;;;;9.82;2.40;;;;;;;0.54;100.00;98432.72;5056160;28;20020;-74
2022/01/05 04:31:38;;;;;;;12.27;2.30;;;;;;;0.60;100.00;98428.25;5055959;28;20060;-74
2022/01/05 04:34:04;;;;;;;7.53;2.10;;;;;;;0.49;100.00;98439.81;5056167;28;20036;-74
2022/01/05 04:36:29;;;;;;;10.07;1.90;;;;;;;0.47;100.00;98441.63;5056086;28;20493;-74
2022/01/05 04:38:55;;;;;;;13.35;2.30;;;;;;;0.51;100.00;98453.81;5055728;28;20187;-74
2022/01/05 04:41:20;;;;;;;9.50;2.20;;;;;;;0.46;100.00;98450.41;5055991;28;20021;-74
2022/01/05 04:43:45;;;;;;;12.23;2.63;;;;;;;0.58;100.00;98448.44;5055999;28;20429;-74
2022/01/05 04:46:11;;;;;;;10.25;2.25;;;;;;;0.37;100.00;98438.31;5055706;28;20103;-74
2022/01/05 04:48:36;;;;;;;15.93;2.42;;;;;;;0.43;100.00;98453.97;5055638;28;20400;-74
2022/01/05 04:51:03;;;;;;;10.57;3.08;;;;;;;0.44;100.00;98446.94;5055588;28;20047;-74
2022/01/05 04:53:28;;;;;;;14.20;2.50;;;;;;;0.44;100.00;98452.19;5055733;28;20099;-74
2022/01/05 04:55:54;;;;;;;14.55;2.60;;;;;;;0.48;100.00;98451.25;5054210;28;20425;-74
2022/01/05 04:58:19;;;;;;;9.38;2.28;;;;;;;0.52;100.00;98454.66;5055388;28;20469;-74
2022/01/05 05:00:45;;;;;;;11.05;2.75;;;;;;;0.50;100.00;98451.22;5055413;28;20078;-74
2022/01/05 05:03:10;;;;;;;15.38;2.70;;;;;;;0.46;100.00;98437.28;5055631;28;20024;-74
2022/01/05 05:05:35;;;;;;;11.63;2.67;;;;;;;0.53;100.00;98440.66;5055585;28;20458;-74
2022/01/05 05:08:01;;;;;;;11.05;2.30;;;;;;;0.58;100.00;98449.31;5055284;28;20041;-74
2022/01/05 05:10:27;;;;;;;8.93;1.85;;;;;;;0.54;100.00;98447.66;5055206;28;20025;-74
2022/01/05 05:12:52;;;;;;;9.57;2.65;;;;;;;0.59;100.00;98450.19;5055145;28;20020;-74
2022/01/05 05:15:17;;;;;;;12.35;2.35;;;;;;;0.58;100.00;98453.69;5055254;28;20407;-75
2022/01/05 05:17:43;;;;;;;13.25;3.70;;;;;;;0.58;100.00;98448.44;5055014;28;20075;-74
2022/01/05 05:20:08;;;;;;;11.82;3.15;;;;;;;0.51;100.00;98447.69;5055024;28;20029;-73
2022/01/05 05:22:35;;;;;;;11.18;3.08;;;;;;;0.54;100.00;98447.66;5054982;28;20025;-73
2022/01/05 05:25:01;;;;;;;10.93;2.50;;;;;;;0.53;100.00;98438.91;5054918;28;20071;-74
2022/01/05 05:27:26;;;;;;;15.10;2.92;;;;;;;0.57;100.00;98437.06;5053649;28;20466;-74
2022/01/05 05:29:52;;;;;;;9.45;2.97;;;;;;;0.60;100.00;98442.25;5054785;28;20078;-73
2022/01/05 05:32:17;;;;;;;9.20;2.13;;;;;;;0.60;100.00;98436.13;5054780;28;20048;-74
2022/01/05 05:34:43;;;;;;;8.80;2.90;;;;;;;0.67;100.00;98435.16;5054989;28;20021;-73
2022/01/05 05:37:08;;;;;;;13.63;2.97;;;;;;;0.67;100.00;98427.28;5055201;28;20033;-73
2022/01/05 05:39:33;;;;;;;11.55;2.70;;;;;;;0.73;100.00;98437.63;5054946;28;20017;-73
2022/01/05 05:41:59;;;;;;;13.60;2.90;;;;;;;0.74;100.00;98439.38;5054605;28;20028;-73
2022/01/05 05:44:24;;;;;;;14.05;2.90;;;;;;;0.69;100.00;98435.09;5054520;28;20032;-73
2022/01/05 05:46:49;;;;;;;15.60;3.30;;;;;;;0.69;100.00;98422.84;5054626;28;20067;-73
2022/01/05 05:49:14;;;;;;;11.07;2.90;;;;;;;0.74;100.00;98433.25;5054717;28;20080;-73
2022/01/05 05:51:40;;;;;;;9.55;3.00;;;;;;;0.72;100.00;98433.28;5054090;28;20017;-73
2022/01/05 05:54:05;;;;;;;11.25;2.47;;;;;;;0.71;100.00;98428.94;5054784;28;20029;-74
2022/01/05 05:56:31;;;;;;;15.25;3.22;;;;;;;0.76;100.00;98437.59;5054678;28;20392;-75
2022/01/05 05:58:56;;;;;;;7.28;2.90;;;;;;;0.71;100.00;98428.94;5053036;28;20470;-73
2022/01/05 06:01:21;;;;;;;16.23;2.85;;;;;;;0.66;100.00;98431.66;5054100;28;20108;-73
2022/01/05 06:03:47;;;;;;;11.25;2.80;;;;;;;0.62;100.00;98437.00;5054463;28;20021;-73
2022/01/05 06:06:12;;;;;;;10.52;2.63;;;;;;;0.55;100.00;98439.72;5054432;28;20020;-73
2022/01/05 06:08:39;;;;;;;17.60;3.40;;;;;;;0.47;100.00;98449.50;5054606;28;20381;-73
2022/01/05 06:11:06;;;;;;;11.50;3.10;;;;;;;0.56;100.00;98435.34;5054126;28;20052;-73
2022/01/05 06:13:31;;;;;;;10.57;2.90;;;;;;;0.60;100.00;98430.88;5054056;28;20025;-73
2022/01/05 06:15:56;;;;;;;16.77;3.20;;;;;;;0.60;100.00;98441.38;5054143;28;20020;-73
2022/01/05 06:18:21;;;;;;;11.23;3.03;;;;;;;0.60;100.00;98447.50;5052689;28;20538;-73
2022/01/05 06:20:47;;;;;;;14.48;2.90;;;;;;;0.56;100.00;98440.59;5053862;28;20025;-73
2022/01/05 06:23:12;;;;;;;12.35;3.20;;;;;;;0.55;100.00;98434.47;5052553;28;20025;-73
2022/01/05 06:25:37;;;;;;;13.18;3.55;;;;;;;0.54;100.00;98442.41;5052476;28;20028;-73
2022/01/05 06:28:03;;;;;;;16.02;3.25;;;;;;;0.51;100.00;98448.56;5054081;28;20028;-73
2022/01/05 06:30:29;;;;;;;14.95;3.42;;;;;;;0.53;100.00;98438.91;5053774;28;20025;-74
2022/01/05 06:32:54;;;;;;;15.27;3.10;;;;;;;0.49;100.00;98445.09;5053672;28;20025;-74
2022/01/05 06:35:23;;;;;;;9.93;3.03;;;;;;;0.46;100.00;98441.66;5053526;28;20106;-74
2022/01/05 06:37:50;;;;;;;10.55;3.40;;;;;;;0.51;100.00;98432.81;5052249;28;20080;-73
2022/01/05 06:40:15;;;;;;;15.05;3.22;;;;;;;0.43;100.00;98435.59;5053479;28;20071;-72
2022/01/05 06:42:40;;;;;;;12.95;3.50;;;;;;;0.35;100.00;98440.09;5053552;28;20024;-72
2022/01/05 06:45:06;;;;;;;12.57;2.95;;;;;;;0.39;100.00;98430.38;5053650;28;20458;-72
2022/01/05 06:47:31;;;;;;;12.80;3.10;;;;;;;0.29;100.00;98438.44;5053401;28;20458;-73
2022/01/05 06:49:57;;;;;;;13.55;2.95;;;;;;;0.41;100.00;98429.47;5052046;28;20024;-72
2022/01/05 06:52:22;;;;;;;12.88;3.28;;;;;;;0.31;100.00;98434.03;5053432;28;20032;-72
2022/01/05 06:54:48;;;;;;;12.88;3.28;;;;;;;0.39;100.00;98439.13;5053331;28;20025;-74
2022/01/05 06:57:13;;;;;;;14.95;3.72;;;;;;;0.36;100.00;98444.44;5053307;28;20028;-74
2022/01/05 06:59:39;;;;;;;12.63;2.97;;;;;;;0.35;100.00;98449.72;5053197;28;20020;-74
2022/01/05 07:02:05;;;;;;;9.57;2.75;;;;;;;0.33;100.00;98445.38;5051966;28;20025;-74
2022/01/05 07:04:31;;;;;;;11.73;3.17;;;;;;;0.36;100.00;98443.59;5053487;28;20032;-74
2022/01/05 07:06:56;;;;;;;13.32;3.00;;;;;;;0.40;100.00;98455.75;5053553;28;20393;-74
2022/01/05 07:09:22;;;;;;;13.20;2.75;;;;;;;0.43;100.00;98455.72;5053161;28;20163;-74
2022/01/05 07:11:47;;;;;;;17.35;3.50;;;;;;;0.39;100.00;98448.78;5053059;28;20071;-75
2022/01/05 07:14:12;;;;;;;17.80;3.15;;;;;;;0.34;100.00;98446.22;5051813;28;20029;-75
2022/01/05 07:16:37;;;;;;;15.20;3.97;;;;;;;0.28;100.00;98462.97;5052955;28;20398;-75
2022/01/05 07:19:03;;;;;;;12.73;3.47;;;;;;;0.30;100.00;98442.81;5053050;28;20147;-74
2022/01/05 07:21:29;;;;;;;13.10;3.15;;;;;;;0.29;100.00;98453.31;5051766;28;20033;-75
2022/01/05 07:23:54;;;;;;;11.75;3.25;;;;;;;0.33;100.00;98466.41;5052975;28;20029;-74
2022/01/05 07:26:21;;;;;;;22.02;4.30;;;;;;;0.31;100.00;98472.56;5052984;28;20021;-74
2022/01/05 07:28:46;;;;;;;12.27;3.45;;;;;;;0.30;100.00;98463.81;5052985;28;20021;-74
2022/01/05 07:31:12;;;;;;;10.88;2.65;;;;;;;0.32;100.00;98464.66;5052792;28;20017;-74
2022/01/05 07:33:37;;;;;;;12.57;3.25;;;;;;;0.31;100.00;98468.16;5052899;28;20107;-74
2022/01/05 07:36:03;;;;;;;13.98;2.75;;;;;;;0.41;100.00;98475.91;5053295;28;20036;-75
2022/01/05 07:38:29;;;;;;;16.08;3.25;;;;;;;0.38;100.00;98471.56;5052877;28;20469;-75
2022/01/05 07:40:54;;;;;;;12.15;3.00;;;;;;;0.42;100.00;98473.22;5052807;28;20095;-74
2022/01/05 07:43:22;;;;;;;13.25;3.28;;;;;;;0.43;100.00;98477.59;5052842;28;20049;-74
2022/01/05 07:45:47;;;;;;;17.63;3.58;;;;;;;0.47;100.00;98474.91;5052763;28;20105;-74
2022/01/05 07:48:12;;;;;;;12.95;3.53;;;;;;;0.53;100.00;98478.28;5052760;28;20104;-74
2022/01/05 07:50:38;;;;;;;13.02;3.40;;;;;;;0.50;100.00;98483.59;5052985;28;20385;-74
2022/01/05 07:53:04;;;;;;;10.98;2.95;;;;;;;0.52;100.00;98492.31;5052792;28;20103;-74
2022/01/05 07:55:30;;;;;;;11.95;3.10;;;;;;;0.59;100.00;98473.81;5052685;28;20028;-74
2022/01/05 07:57:56;;;;;;;15.77;3.67;;;;;;;0.59;100.00;98492.22;5052643;28;20063;-74
2022/01/05 08:00:21;;;;;;;19.80;3.83;;;;;;;0.60;100.00;98494.78;5052562;28;20024;-74
2022/01/05 08:02:47;;;;;;;14.88;3.15;;;;;;;0.64;100.00;98493.00;5052634;28;20025;-74
2022/01/05 08:05:12;;;;;;;14.93;4.10;;;;;;;0.68;100.00;98507.78;5052634;28;20028;-74
2022/01/05 08:07:37;;;;;;;18.73;3.60;;;;;;;0.71;100.00;98501.63;5051342;28;20119;-74
2022/01/05 08:10:03;;;;;;;14.95;3.92;;;;;;;0.79;100.00;98486.59;5052732;28;20036;-74
2022/01/05 08:12:28;;;;;;;14.13;3.72;;;;;;;0.83;100.00;98505.78;5052405;28;20157;-74
2022/01/05 08:14:54;;;;;;;13.38;3.60;;;;;;;0.84;100.00;98499.63;5055060;28;20393;-75
2022/01/05 08:17:19;;;;;;;17.63;4.07;;;;;;;0.84;100.00;98491.75;5056231;28;20123;-75
2022/01/05 08:19:45;;;;;;;12.90;3.67;;;;;;;0.87;100.00;98496.94;5056253;28;20515;-74
2022/01/05 08:22:10;;;;;;;12.10;3.40;;;;;;;0.92;100.00;98496.84;5056897;28;20538;-75
2022/01/05 08:24:36;;;;;;;14.55;3.40;;;;;;;0.96;100.00;98496.75;5056738;28;20040;-75
2022/01/05 08:27:01;;;;;;;17.08;3.78;;;;;;;1.05;100.00;98486.97;5054800;28;20116;-75
2022/01/05 08:29:27;;;;;;;12.30;4.03;;;;;;;1.06;100.00;98502.69;5055999;28;20375;-74
2022/01/05 08:31:52;;;;;;;15.07;4.10;;;;;;;1.00;100.00;98498.44;5056012;28;20025;-75
2022/01/05 08:34:17;;;;;;;11.18;3.22;;;;;;;1.06;100.00;98496.56;5054756;28;20025;-75
2022/01/05 08:36:43;;;;;;;13.35;3.97;;;;;;;0.99;100.00;98494.06;5055796;28;20112;-75
2022/01/05 08:39:08;;;;;;;13.98;3.80;;;;;;;1.00;100.00;98493.19;5055999;28;20029;-74
2022/01/05 08:41:34;;;;;;;15.13;4.20;;;;;;;1.00;100.00;98498.44;5055767;28;20028;-75
2022/01/05 08:43:59;;;;;;;19.55;4.63;;;;;;;0.97;100.00;98488.00;5055695;28;20024;-75
2022/01/05 08:46:24;;;;;;;15.05;4.65;;;;;;;0.89;100.00;98490.78;5055712;28;20029;-75
2022/01/05 08:48:50;;;;;;;18.80;5.35;;;;;;;0.90;100.00;98489.00;5055642;28;20415;-75
2022/01/05 08:51:15;;;;;;;13.25;4.05;;;;;;;0.86;100.00;98484.69;5055542;28;20078;-75
2022/01/05 08:53:40;;;;;;;15.07;5.10;;;;;;;0.82;100.00;98490.91;5055546;28;20016;-75
2022/01/05 08:56:06;;;;;;;19.50;4.90;;;;;;;0.80;100.00;98490.09;5055575;28;20398;-75
2022/01/05 08:58:31;;;;;;;17.73;5.40;;;;;;;0.69;100.00;98467.50;5054262;28;20424;-75
2022/01/05 09:00:57;;;;;;;24.00;6.13;;;;;;;0.65;100.00;98471.94;5055491;28;20021;-75
2022/01/05 09:03:22;;;;;;;20.90;6.18;;;;;;;0.48;100.00;98474.88;5055591;28;20028;-75
2022/01/05 09:05:47;;;;;;;16.98;6.45;;;;;;;0.33;100.00;98482.16;5055675;28;20102;-76
2022/01/05 09:08:13;;;;;;;22.58;6.90;;;;;;;0.32;100.00;98472.53;5055364;28;20025;-77
2022/01/05 09:10:39;;;;;;;18.63;7.50;;;;;;;0.18;100.00;98487.66;5055825;28;20390;-76
2022/01/05 09:13:05;;;;;;;19.88;8.55;;;;;;;-0.05;100.00;98478.41;5055177;28;20032;-76
2022/01/05 09:15:33;;;;;;;17.83;9.10;;;;;;;-0.31;100.00;98479.66;5053941;28;20017;-75
2022/01/05 09:17:59;;;;;;;27.60;10.70;;;;;;;-0.36;100.00;98477.94;5053823;28;20028;-75
2022/01/05 09:20:24;;;;;;;24.05;11.75;;;;;;;-0.46;100.00;98471.09;5055025;28;20021;-75
2022/01/05 09:22:50;;;;;;;28.48;12.13;;;;;;;-0.48;100.00;98471.13;5053778;28;20482;-75
2022/01/05 09:25:18;;;;;;;29.15;13.43;;;;;;;-0.63;100.00;98479.22;5053969;28;20021;-75
2022/01/05 09:27:45;;;;;;;28.45;14.25;;;;;;;-0.72;100.00;98454.84;5053673;28;20049;-76
2022/01/05 09:30:12;;;;;;;32.45;16.23;;;;;;;-0.73;100.00;98479.34;5055066;28;20032;-76
2022/01/05 09:32:38;;;;;;;29.00;16.63;;;;;;;-0.65;100.00;98444.28;5053640;28;20451;-76
2022/01/05 09:35:05;;;;;;;35.97;17.33;;;;;;;-0.70;100.00;98445.25;5054871;28;20112;-76
2022/01/05 09:37:39;;;;;;;36.53;19.27;;;;;;;-0.64;100.00;98444.25;5055370;28;20032;-76
2022/01/05 09:42:48;;;;;;;38.08;19.05;;;;;;;-0.54;100.00;98446.78;5054952;28;20090;-76
2022/01/05 09:45:14;;;;;;;33.58;18.95;;;;;;;-0.49;100.00;98444.94;5054594;28;20033;-76
2022/01/05 09:47:51;;;;;;;34.10;20.05;;;;;;;-0.43;100.00;98444.84;5054535;28;20029;-75
2022/01/05 09:50:18;;;;;;;34.00;19.48;;;;;;;-0.39;100.00;98467.53;5053223;28;20028;-76
2022/01/05 09:52:45;;;;;;;32.63;18.77;;;;;;;-0.26;100.00;98448.97;5054488;28;20025;-76
2022/01/05 09:55:12;;;;;;;35.40;18.55;;;;;;;-0.23;100.00;98448.91;5053109;28;20482;-76
2022/01/05 09:57:40;;;;;;;33.83;20.17;;;;;;;-0.14;100.00;98443.53;5054303;28;20471;-76
2022/01/05 10:00:07;;;;;;;35.72;21.33;;;;;;;-0.09;100.00;98442.59;5054193;28;20025;-76
2022/01/05 10:02:33;;;;;;;36.97;21.20;;;;;;;-0.03;100.00;98448.63;5054358;28;20027;-76
2022/01/05 10:04:58;;;;;;;38.08;21.25;;;;;;;-0.03;100.00;98447.75;5054230;28;20386;-76
2022/01/05 10:07:24;;;;;;;32.20;19.10;;;;;;;-0.09;100.00;98440.84;5054988;28;20021;-76
2022/01/05 10:09:49;;;;;;;36.20;19.63;;;;;;;-0.12;100.00;98441.75;5054076;28;20029;-76
2022/01/05 10:12:15;;;;;;;36.83;20.83;;;;;;;-0.14;100.00;98440.91;5054211;28;20163;-76
2022/01/05 10:14:42;;;;;;;31.83;20.23;;;;;;;-0.17;100.00;98440.09;5054917;28;20021;-76
2022/01/05 10:17:12;;;;;;;34.85;20.63;;;;;;;-0.17;100.00;98446.22;5053975;28;20486;-77
2022/01/05 10:19:38;;;;;;;35.50;20.77;;;;;;;-0.18;100.00;98452.31;5053170;28;20107;-76
2022/01/05 10:22:25;;;;;;;34.88;18.70;;;;;;;-0.17;100.00;98450.56;5052650;28;20029;-76
2022/01/05 10:24:51;;;;;;;35.72;19.73;;;;;;;-0.36;100.00;98454.34;5053760;28;20025;-76
2022/01/05 10:27:21;;;;;;;27.50;17.50;;;;;;;-0.48;100.00;98451.91;5053818;28;20027;-76
2022/01/05 10:29:52;;;;;;;36.80;17.38;;;;;;;-0.62;100.00;98452.97;5054220;28;20020;-77
2022/01/05 10:32:18;;;;;;;32.97;18.15;;;;;;;-0.55;100.00;98445.91;5053430;28;20025;-77
2022/01/05 10:34:58;;;;;;;32.42;18.42;;;;;;;-0.60;100.00;98450.34;5055560;28;20393;-77
2022/01/05 10:37:24;;;;;;;34.03;17.85;;;;;;;-0.64;100.00;98466.97;5056890;28;20028;-78
2022/01/05 10:40:02;;;;;;;33.70;17.73;;;;;;;-0.60;100.00;98466.94;5058295;28;20037;-78
2022/01/05 10:42:34;;;;;;;37.55;18.83;;;;;;;-0.65;100.00;98475.75;5058019;28;20025;-77
2022/01/05 10:45:01;;;;;;;31.77;18.02;;;;;;;-0.66;100.00;98464.41;5056241;28;20017;-77
2022/01/05 10:47:27;;;;;;;31.77;18.77;;;;;;;-0.62;100.00;98470.47;5058706;28;20033;-78
2022/01/05 10:49:54;;;;;;;29.33;16.58;;;;;;;-0.48;100.00;98484.25;5059436;28;20539;-78
2022/01/05 10:52:27;;;;;;;30.58;15.80;;;;;;;-0.42;100.00;98493.78;5058117;28;20025;-81
2022/01/05 10:54:54;;;;;;;26.98;14.25;;;;;;;-0.36;100.00;98493.69;5054277;28;20021;-77
2022/01/05 10:57:20;;;;;;;25.50;12.63;;;;;;;-0.22;100.00;98479.50;5053961;28;20070;-77
2022/01/05 10:59:53;;;;;;;24.77;11.95;;;;;;;-0.14;100.00;98467.16;5054904;28;20033;-78
2022/01/05 11:02:25;;;;;;;21.77;11.67;;;;;;;-0.04;100.00;98488.00;5053761;28;20025;-77
2022/01/05 11:05:13;;;;;;;22.23;10.15;;;;;;;0.06;100.00;98486.94;5054980;28;20098;-79
2022/01/05 11:07:39;;;;;;;17.52;9.13;;;;;;;0.19;100.00;98492.00;5056264;28;20371;-77
2022/01/05 11:13:06;;;;;;;18.40;9.20;;;;;;;0.27;100.00;98498.00;5039144;28;20118;-84
2022/01/05 11:15:34;;;;;;;16.95;7.63;;;;;;;0.30;100.00;98515.47;5060218;28;20433;-84
2022/01/05 11:18:15;;;;;;;17.95;8.55;;;;;;;0.30;100.00;98507.59;5059485;28;20029;-86
2022/01/05 11:20:52;;;;;;;11.98;6.47;;;;;;;0.29;100.00;98516.34;5040812;28;20025;-84
2022/01/05 11:23:22;;;;;;;9.60;5.85;;;;;;;0.32;100.00;98532.91;5040908;28;20028;-84
2022/01/05 11:25:57;;;;;;;11.35;5.70;;;;;;;0.32;100.00;98546.03;5041005;28;20026;-85
2022/01/05 11:28:39;;;;;;;10.00;5.90;;;;;;;0.22;100.00;98532.22;5038061;28;20029;-85